sensor_id;sensor_type;location;lat;lon;timestamp;pressure;altitude;pressure_sealevel;temperature;humidity
49843;BME280;55559;48.898;9.184;2023-02-12T00:01:17;100407.44;;;5.28;100.00
49843;BME280;55559;48.898;9.184;2023-02-12T00:03:47;100402.06;;;5.31;100.00
49843;BME280;55559;48.898;9.184;2023-02-12T00:06:15;100403.00;;;5.29;100.00
49843;BME280;55559;48.898;9.184;2023-02-12T00:08:43;100408.19;;;5.32;100.00
49843;BME280;55559;48.898;9.184;2023-02-12T00:11:12;100412.47;;;5.34;100.00
49843;BME280;55559;48.898;9.184;2023-02-12T00:13:40;100411.56;;;5.35;100.00
49843;BME280;55559;48.898;9.184;2023-02-12T00:16:09;100416.06;;;5.33;100.00
49843;BME280;55559;48.898;9.184;2023-02-12T00:18:37;100413.41;;;5.33;100.00
49843;BME280;55559;48.898;9.184;2023-02-12T00:21:06;100419.66;;;5.31;100.00
49843;BME280;55559;48.898;9.184;2023-02-12T00:23:35;100414.59;;;5.25;100.00
49843;BME280;55559;48.898;9.184;2023-02-12T00:26:04;100424.47;;;5.19;100.00
49843;BME280;55559;48.898;9.184;2023-02-12T00:28:32;100416.72;;;5.15;100.00
49843;BME280;55559;48.898;9.184;2023-02-12T00:31:04;100422.72;;;5.18;100.00
49843;BME280;55559;48.898;9.184;2023-02-12T00:33:32;100414.38;;;5.06;100.00
49843;BME280;55559;48.898;9.184;2023-02-12T00:35:59;100420.13;;;4.92;100.00
49843;BME280;55559;48.898;9.184;2023-02-12T00:38:28;100424.03;;;4.80;100.00
49843;BME280;55559;48.898;9.184;2023-02-12T00:40:55;100431.97;;;4.80;100.00
49843;BME280;55559;48.898;9.184;2023-02-12T00:43:23;100425.13;;;4.74;100.00
49843;BME280;55559;48.898;9.184;2023-02-12T00:45:50;100440.13;;;4.72;100.00
49843;BME280;55559;48.898;9.184;2023-02-12T00:48:19;100430.44;;;4.73;100.00
49843;BME280;55559;48.898;9.184;2023-02-12T00:50:47;100431.28;;;4.73;100.00
49843;BME280;55559;48.898;9.184;2023-02-12T00:53:16;100435.56;;;4.77;100.00
49843;BME280;55559;48.898;9.184;2023-02-12T00:55:45;100428.63;;;4.75;100.00
49843;BME280;55559;48.898;9.184;2023-02-12T00:58:13;100436.66;;;4.70;100.00
49843;BME280;55559;48.898;9.184;2023-02-12T01:00:41;100425.59;;;4.85;100.00
49843;BME280;55559;48.898;9.184;2023-02-12T01:03:09;100426.50;;;4.86;100.00
49843;BME280;55559;48.898;9.184;2023-02-12T01:05:36;100430.03;;;4.85;100.00
49843;BME280;55559;48.898;9.184;2023-02-12T01:08:04;100426.59;;;4.83;100.00
49843;BME280;55559;48.898;9.184;2023-02-12T01:10:32;100428.47;;;4.79;100.00
49843;BME280;55559;48.898;9.184;2023-02-12T01:13:01;100419.56;;;4.82;100.00
49843;BME280;55559;48.898;9.184;2023-02-12T01:15:28;100424.84;;;4.82;100.00
49843;BME280;55559;48.898;9.184;2023-02-12T01:17:56;100431.09;;;4.79;100.00
49843;BME280;55559;48.898;9.184;2023-02-12T01:20:24;100437.38;;;4.75;100.00
49843;BME280;55559;48.898;9.184;2023-02-12T01:22:52;100431.28;;;4.73;100.00
49843;BME280;55559;48.898;9.184;2023-02-12T01:25:19;100431.25;;;4.75;100.00
49843;BME280;55559;48.898;9.184;2023-02-12T01:27:47;100440.00;;;4.75;100.00
49843;BME280;55559;48.898;9.184;2023-02-12T01:30:16;100431.09;;;4.79;100.00
49843;BME280;55559;48.898;9.184;2023-02-12T01:32:47;100431.16;;;4.78;100.00
49843;BME280;55559;48.898;9.184;2023-02-12T01:35:14;100436.38;;;4.79;100.00
49843;BME280;55559;48.898;9.184;2023-02-12T01:37:42;100435.34;;;4.83;100.00
49843;BME280;55559;48.898;9.184;2023-02-12T01:40:12;100432.94;;;4.77;100.00
49843;BME280;55559;48.898;9.184;2023-02-12T01:42:41;100417.94;;;4.79;100.00
49843;BME280;55559;48.898;9.184;2023-02-12T01:48:22;100431.25;;;4.75;100.00
49843;BME280;55559;48.898;9.184;2023-02-12T01:50:52;100422.50;;;4.74;100.00
49843;BME280;55559;48.898;9.184;2023-02-12T01:53:21;100423.44;;;4.72;100.00
49843;BME280;55559;48.898;9.184;2023-02-12T01:55:53;100419.16;;;4.69;100.00
49843;BME280;55559;48.898;9.184;2023-02-12T01:58:24;100420.94;;;4.67;100.00
49843;BME280;55559;48.898;9.184;2023-02-12T02:00:52;100421.78;;;4.69;100.00
49843;BME280;55559;48.898;9.184;2023-02-12T02:03:22;100427.81;;;4.73;100.00
49843;BME280;55559;48.898;9.184;2023-02-12T02:05:55;100420.81;;;4.72;100.00
49843;BME280;55559;48.898;9.184;2023-02-12T02:08:23;100426.06;;;4.72;100.00
49843;BME280;55559;48.898;9.184;2023-02-12T02:10:50;100421.69;;;4.72;100.00
49843;BME280;55559;48.898;9.184;2023-02-12T02:13:18;100417.22;;;4.74;100.00
49843;BME280;55559;48.898;9.184;2023-02-12T02:16:11;100412.91;;;4.72;100.00
49843;BME280;55559;48.898;9.184;2023-02-12T02:18:49;100406.91;;;4.66;100.00
49843;BME280;55559;48.898;9.184;2023-02-12T02:21:42;100405.97;;;4.69;100.00
49843;BME280;55559;48.898;9.184;2023-02-12T02:24:30;100411.28;;;4.68;100.00
49843;BME280;55559;48.898;9.184;2023-02-12T02:27:29;100402.41;;;4.70;100.00
49843;BME280;55559;48.898;9.184;2023-02-12T02:30:26;100397.31;;;4.65;100.00
49843;BME280;55559;48.898;9.184;2023-02-12T02:33:05;100400.84;;;4.64;100.00
49843;BME280;55559;48.898;9.184;2023-02-12T02:35:40;100385.94;;;4.63;100.00
49843;BME280;55559;48.898;9.184;2023-02-12T02:38:19;100389.31;;;4.67;100.00
49843;BME280;55559;48.898;9.184;2023-02-12T02:40:52;100390.91;;;4.73;100.00
49843;BME280;55559;48.898;9.184;2023-02-12T02:43:26;100391.66;;;4.76;100.00
49843;BME280;55559;48.898;9.184;2023-02-12T02:46:00;100393.31;;;4.79;100.00
49843;BME280;55559;48.898;9.184;2023-02-12T02:48:33;100397.69;;;4.80;100.00
49843;BME280;55559;48.898;9.184;2023-02-12T02:51:05;100391.41;;;4.84;100.00
49843;BME280;55559;48.898;9.184;2023-02-12T02:53:39;100393.06;;;4.87;100.00
49843;BME280;55559;48.898;9.184;2023-02-12T02:56:13;100384.38;;;4.84;100.00
49843;BME280;55559;48.898;9.184;2023-02-12T02:58:45;100392.03;;;4.91;100.00
49843;BME280;55559;48.898;9.184;2023-02-12T03:01:17;100389.47;;;4.89;100.00
49843;BME280;55559;48.898;9.184;2023-02-12T03:03:50;100402.59;;;4.91;100.00
49843;BME280;55559;48.898;9.184;2023-02-12T03:06:23;100394.66;;;4.91;100.00
49843;BME280;55559;48.898;9.184;2023-02-12T03:08:56;100395.50;;;4.93;100.00
49843;BME280;55559;48.898;9.184;2023-02-12T03:11:26;100389.91;;;5.02;100.00
49843;BME280;55559;48.898;9.184;2023-02-12T03:13:58;100396.09;;;5.01;100.00
49843;BME280;55559;48.898;9.184;2023-02-12T03:16:31;100397.00;;;5.00;100.00
49843;BME280;55559;48.898;9.184;2023-02-12T03:19:02;100396.09;;;5.01;100.00
49843;BME280;55559;48.898;9.184;2023-02-12T03:21:35;100408.41;;;5.00;100.00
49843;BME280;55559;48.898;9.184;2023-02-12T03:24:10;100405.06;;;4.95;100.00
49843;BME280;55559;48.898;9.184;2023-02-12T03:26:44;100397.81;;;5.02;100.00
49843;BME280;55559;48.898;9.184;2023-02-12T03:29:13;100410.19;;;5.00;100.00
49843;BME280;55559;48.898;9.184;2023-02-12T03:31:51;100415.47;;;5.00;100.00
49843;BME280;55559;48.898;9.184;2023-02-12T03:34:25;100408.13;;;4.83;100.00
49843;BME280;55559;48.898;9.184;2023-02-12T03:37:02;100401.19;;;4.80;100.00
49843;BME280;55559;48.898;9.184;2023-02-12T03:39:37;100407.63;;;4.72;100.00
49843;BME280;55559;48.898;9.184;2023-02-12T03:42:13;100398.59;;;4.54;100.00
49843;BME280;55559;48.898;9.184;2023-02-12T03:44:50;100405.13;;;4.42;100.00
49843;BME280;55559;48.898;9.184;2023-02-12T03:47:24;100416.66;;;4.38;100.00
49843;BME280;55559;48.898;9.184;2023-02-12T03:49:59;100412.41;;;4.34;100.00
49843;BME280;55559;48.898;9.184;2023-02-12T03:52:29;100419.63;;;4.27;100.00
49843;BME280;55559;48.898;9.184;2023-02-12T03:54:57;100409.06;;;4.28;100.00
49843;BME280;55559;48.898;9.184;2023-02-12T03:57:27;100419.63;;;4.27;100.00
49843;BME280;55559;48.898;9.184;2023-02-12T03:59:56;100416.25;;;4.23;100.00
49843;BME280;55559;48.898;9.184;2023-02-12T04:02:27;100425.78;;;4.26;100.00
49843;BME280;55559;48.898;9.184;2023-02-12T04:04:54;100422.28;;;4.27;100.00
49843;BME280;55559;48.898;9.184;2023-02-12T04:07:22;100421.97;;;4.36;100.00
49843;BME280;55559;48.898;9.184;2023-02-12T04:09:49;100427.13;;;4.39;100.00
49843;BME280;55559;48.898;9.184;2023-02-12T04:12:29;100428.03;;;4.38;100.00
49843;BME280;55559;48.898;9.184;2023-02-12T04:15:10;100418.16;;;4.45;100.00
49843;BME280;55559;48.898;9.184;2023-02-12T04:17:47;100420.91;;;4.42;100.00
49843;BME280;55559;48.898;9.184;2023-02-12T04:20:24;100431.63;;;4.36;100.00
49843;BME280;55559;48.898;9.184;2023-02-12T04:23:02;100425.00;;;4.24;100.00
49843;BME280;55559;48.898;9.184;2023-02-12T04:25:45;100428.63;;;4.20;100.00
49843;BME280;55559;48.898;9.184;2023-02-12T04:28:24;100426.16;;;4.15;100.00
49843;BME280;55559;48.898;9.184;2023-02-12T04:30:58;100433.16;;;4.15;100.00
49843;BME280;55559;48.898;9.184;2023-02-12T04:33:34;100441.06;;;4.15;100.00
49843;BME280;55559;48.898;9.184;2023-02-12T04:36:08;100447.16;;;4.17;100.00
49843;BME280;55559;48.898;9.184;2023-02-12T04:38:40;100448.91;;;4.16;100.00
49843;BME280;55559;48.898;9.184;2023-02-12T04:41:10;100445.34;;;4.19;100.00
49843;BME280;55559;48.898;9.184;2023-02-12T04:43:37;100447.97;;;4.19;100.00
49843;BME280;55559;48.898;9.184;2023-02-12T04:46:07;100444.22;;;4.26;100.00
49843;BME280;55559;48.898;9.184;2023-02-12T04:48:46;100448.59;;;4.27;100.00
49843;BME280;55559;48.898;9.184;2023-02-12T04:51:16;100447.19;;;4.43;100.00
49843;BME280;55559;48.898;9.184;2023-02-12T04:53:43;100448.97;;;4.43;100.00
49843;BME280;55559;48.898;9.184;2023-02-12T04:56:11;100448.13;;;4.42;100.00
49843;BME280;55559;48.898;9.184;2023-02-12T04:58:39;100447.19;;;4.43;100.00
49843;BME280;55559;48.898;9.184;2023-02-12T05:01:07;100446.16;;;4.49;100.00
49843;BME280;55559;48.898;9.184;2023-02-12T05:03:36;100440.84;;;4.51;100.00
49843;BME280;55559;48.898;9.184;2023-02-12T05:06:05;100432.00;;;4.52;100.00
49843;BME280;55559;48.898;9.184;2023-02-12T05:08:33;100432.88;;;4.52;100.00
49843;BME280;55559;48.898;9.184;2023-02-12T05:11:04;100437.84;;;4.61;100.00
49843;BME280;55559;48.898;9.184;2023-02-12T05:13:32;100437.88;;;4.60;100.00
49843;BME280;55559;48.898;9.184;2023-02-12T05:16:02;100428.28;;;4.59;100.00
49843;BME280;55559;48.898;9.184;2023-02-12T05:18:30;100424.97;;;4.52;100.00
49843;BME280;55559;48.898;9.184;2023-02-12T05:21:00;100423.19;;;4.53;100.00
49843;BME280;55559;48.898;9.184;2023-02-12T05:23:29;100425.81;;;4.53;100.00
49843;BME280;55559;48.898;9.184;2023-02-12T05:25:57;100426.72;;;4.52;100.00
49843;BME280;55559;48.898;9.184;2023-02-12T05:28:25;100425.13;;;4.47;100.00
49843;BME280;55559;48.898;9.184;2023-02-12T05:30:53;100440.00;;;4.48;100.00
49843;BME280;55559;48.898;9.184;2023-02-12T05:33:21;100433.81;;;4.50;100.00
49843;BME280;55559;48.898;9.184;2023-02-12T05:35:48;100434.69;;;4.50;100.00
49843;BME280;55559;48.898;9.184;2023-02-12T05:38:17;100432.75;;;4.55;100.00
49843;BME280;55559;48.898;9.184;2023-02-12T05:40:45;100438.91;;;4.56;100.00
49843;BME280;55559;48.898;9.184;2023-02-12T05:43:12;100443.56;;;4.47;100.00
49843;BME280;55559;48.898;9.184;2023-02-12T05:45:40;100437.34;;;4.48;100.00
49843;BME280;55559;48.898;9.184;2023-02-12T05:48:09;100431.16;;;4.51;100.00
49843;BME280;55559;48.898;9.184;2023-02-12T05:50:37;100437.16;;;4.55;100.00
49843;BME280;55559;48.898;9.184;2023-02-12T05:53:06;100439.75;;;4.56;100.00
49843;BME280;55559;48.898;9.184;2023-02-12T05:55:35;100441.63;;;4.53;100.00
49843;BME280;55559;48.898;9.184;2023-02-12T05:58:03;100447.81;;;4.52;100.00
49843;BME280;55559;48.898;9.184;2023-02-12T06:00:30;100441.03;;;4.44;100.00
49843;BME280;55559;48.898;9.184;2023-02-12T06:02:58;100431.56;;;4.39;100.00
49843;BME280;55559;48.898;9.184;2023-02-12T06:05:25;100443.50;;;4.49;100.00
49843;BME280;55559;48.898;9.184;2023-02-12T06:07:53;100443.38;;;4.54;100.00
49843;BME280;55559;48.898;9.184;2023-02-12T06:10:20;100433.72;;;4.53;100.00
49843;BME280;55559;48.898;9.184;2023-02-12T06:12:53;100443.47;;;4.51;100.00
49843;BME280;55559;48.898;9.184;2023-02-12T06:15:20;100447.81;;;4.52;100.00
49843;BME280;55559;48.898;9.184;2023-02-12T06:17:48;100446.06;;;4.52;100.00
49843;BME280;55559;48.898;9.184;2023-02-12T06:20:15;100447.00;;;4.50;100.00
49843;BME280;55559;48.898;9.184;2023-02-12T06:22:43;100440.94;;;4.47;100.00
49843;BME280;55559;48.898;9.184;2023-02-12T06:25:10;100441.03;;;4.44;100.00
49843;BME280;55559;48.898;9.184;2023-02-12T06:27:38;100444.50;;;4.45;100.00
49843;BME280;55559;48.898;9.184;2023-02-12T06:30:08;100443.47;;;4.51;100.00
49843;BME280;55559;48.898;9.184;2023-02-12T06:32:36;100449.41;;;4.57;100.00
49843;BME280;55559;48.898;9.184;2023-02-12T06:35:04;100456.63;;;4.51;100.00
49843;BME280;55559;48.898;9.184;2023-02-12T06:37:32;100457.53;;;4.50;100.00
49843;BME280;55559;48.898;9.184;2023-02-12T06:40:01;100459.91;;;4.59;100.00
49843;BME280;55559;48.898;9.184;2023-02-12T06:42:29;100461.69;;;4.57;100.00
49843;BME280;55559;48.898;9.184;2023-02-12T06:44:56;100463.59;;;4.52;100.00
49843;BME280;55559;48.898;9.184;2023-02-12T06:47:26;100462.84;;;4.48;100.00
49843;BME280;55559;48.898;9.184;2023-02-12T06:49:53;100469.13;;;4.44;100.00
49843;BME280;55559;48.898;9.184;2023-02-12T06:52:20;100471.59;;;4.48;100.00
49843;BME280;55559;48.898;9.184;2023-02-12T06:54:48;100476.78;;;4.52;100.00
49843;BME280;55559;48.898;9.184;2023-02-12T06:57:15;100473.25;;;4.53;100.00
49843;BME280;55559;48.898;9.184;2023-02-12T06:59:43;100474.00;;;4.56;100.00
49843;BME280;55559;48.898;9.184;2023-02-12T07:02:11;100480.09;;;4.58;100.00
49843;BME280;55559;48.898;9.184;2023-02-12T07:04:40;100474.88;;;4.57;100.00
49843;BME280;55559;48.898;9.184;2023-02-12T07:07:07;100477.03;;;4.72;100.00
49843;BME280;55559;48.898;9.184;2023-02-12T07:09:34;100475.09;;;4.77;100.00
49843;BME280;55559;48.898;9.184;2023-02-12T07:12:02;100478.75;;;4.73;100.00
49843;BME280;55559;48.898;9.184;2023-02-12T07:14:30;100482.31;;;4.72;100.00
49843;BME280;55559;48.898;9.184;2023-02-12T07:16:57;100478.50;;;4.81;100.00
49843;BME280;55559;48.898;9.184;2023-02-12T07:19:28;100477.41;;;4.87;100.00
49843;BME280;55559;48.898;9.184;2023-02-12T07:21:57;100476.91;;;5.02;100.00
49843;BME280;55559;48.898;9.184;2023-02-12T07:24:25;100478.59;;;5.05;100.00
49843;BME280;55559;48.898;9.184;2023-02-12T07:26:52;100476.06;;;5.01;100.00
49843;BME280;55559;48.898;9.184;2023-02-12T07:29:20;100482.84;;;5.09;100.00
49843;BME280;55559;48.898;9.184;2023-02-12T07:31:47;100481.22;;;5.05;100.00
49843;BME280;55559;48.898;9.184;2023-02-12T07:34:15;100481.38;;;5.00;100.00
49843;BME280;55559;48.898;9.184;2023-02-12T07:36:42;100482.97;;;5.04;100.00
49843;BME280;55559;48.898;9.184;2023-02-12T07:39:11;100477.75;;;5.02;100.00
49843;BME280;55559;48.898;9.184;2023-02-12T07:41:39;100479.28;;;5.10;100.00
49843;BME280;55559;48.898;9.184;2023-02-12T07:44:09;100476.81;;;5.05;100.00
49843;BME280;55559;48.898;9.184;2023-02-12T07:46:39;100475.97;;;5.05;100.00
49843;BME280;55559;48.898;9.184;2023-02-12T07:49:09;100483.59;;;5.12;100.00
49843;BME280;55559;48.898;9.184;2023-02-12T07:51:38;100479.94;;;5.16;100.00
49843;BME280;55559;48.898;9.184;2023-02-12T07:54:05;100470.94;;;5.22;100.00
49843;BME280;55559;48.898;9.184;2023-02-12T07:56:35;100484.78;;;5.29;100.00
49843;BME280;55559;48.898;9.184;2023-02-12T07:59:05;100475.13;;;5.28;100.00
49843;BME280;55559;48.898;9.184;2023-02-12T08:01:35;100484.59;;;5.35;100.00
49843;BME280;55559;48.898;9.184;2023-02-12T08:04:05;100473.44;;;5.52;100.00
49843;BME280;55559;48.898;9.184;2023-02-12T08:06:34;100483.81;;;5.56;100.00
49843;BME280;55559;48.898;9.184;2023-02-12T08:09:04;100471.53;;;5.55;100.00
49843;BME280;55559;48.898;9.184;2023-02-12T08:11:32;100470.28;;;5.66;100.00
49843;BME280;55559;48.898;9.184;2023-02-12T08:14:02;100470.22;;;5.67;100.00
49843;BME280;55559;48.898;9.184;2023-02-12T08:16:30;100471.47;;;5.82;100.00
49843;BME280;55559;48.898;9.184;2023-02-12T08:19:01;100472.78;;;5.94;100.00
49843;BME280;55559;48.898;9.184;2023-02-12T08:21:29;100471.38;;;6.09;100.00
49843;BME280;55559;48.898;9.184;2023-02-12T08:23:57;100466.47;;;5.98;100.00
49843;BME280;55559;48.898;9.184;2023-02-12T08:26:26;100470.09;;;6.19;100.00
49843;BME280;55559;48.898;9.184;2023-02-12T08:28:56;100466.47;;;6.22;100.00
49843;BME280;55559;48.898;9.184;2023-02-12T08:31:27;100471.91;;;6.17;100.00
49843;BME280;55559;48.898;9.184;2023-02-12T08:33:55;100479.56;;;6.01;100.00
49843;BME280;55559;48.898;9.184;2023-02-12T08:36:24;100477.50;;;6.09;100.00
49843;BME280;55559;48.898;9.184;2023-02-12T08:38:53;100487.06;;;6.12;100.00
49843;BME280;55559;48.898;9.184;2023-02-12T08:41:22;100484.41;;;6.36;100.00
49843;BME280;55559;48.898;9.184;2023-02-12T08:43:52;100482.38;;;6.20;100.00
49843;BME280;55559;48.898;9.184;2023-02-12T08:46:22;100481.28;;;5.78;100.00
49843;BME280;55559;48.898;9.184;2023-02-12T08:48:53;100485.22;;;5.90;100.00
49843;BME280;55559;48.898;9.184;2023-02-12T08:51:22;100482.44;;;5.93;100.00
49843;BME280;55559;48.898;9.184;2023-02-12T08:53:52;100486.31;;;5.85;100.00
49843;BME280;55559;48.898;9.184;2023-02-12T08:56:20;100487.81;;;5.92;100.00
49843;BME280;55559;48.898;9.184;2023-02-12T08:58:48;100490.03;;;6.04;100.00
49843;BME280;55559;48.898;9.184;2023-02-12T09:01:17;100494.63;;;5.99;100.00
49843;BME280;55559;48.898;9.184;2023-02-12T09:03:45;100489.97;;;6.06;100.00
49843;BME280;55559;48.898;9.184;2023-02-12T09:06:16;100496.31;;;6.24;100.00
49843;BME280;55559;48.898;9.184;2023-02-12T09:08:44;100502.59;;;5.98;100.00
49843;BME280;55559;48.898;9.184;2023-02-12T09:11:13;100493.19;;;6.14;100.00
49843;BME280;55559;48.898;9.184;2023-02-12T09:13:42;100496.38;;;6.22;100.00
49843;BME280;55559;48.898;9.184;2023-02-12T09:16:10;100498.78;;;6.28;100.00
49843;BME280;55559;48.898;9.184;2023-02-12T09:18:38;100490.84;;;6.28;100.00
49843;BME280;55559;48.898;9.184;2023-02-12T09:21:08;100488.84;;;6.35;100.00
49843;BME280;55559;48.898;9.184;2023-02-12T09:23:38;100491.00;;;6.47;100.00
49843;BME280;55559;48.898;9.184;2023-02-12T09:26:06;100490.03;;;6.72;100.00
49843;BME280;55559;48.898;9.184;2023-02-12T09:28:33;100490.47;;;6.61;100.00
49843;BME280;55559;48.898;9.184;2023-02-12T09:31:04;100489.91;;;6.75;100.00
49843;BME280;55559;48.898;9.184;2023-02-12T09:33:31;100481.50;;;6.86;100.00
49843;BME280;55559;48.898;9.184;2023-02-12T09:36:01;100489.94;;;7.16;100.00
49843;BME280;55559;48.898;9.184;2023-02-12T09:38:29;100486.69;;;7.10;100.00
49843;BME280;55559;48.898;9.184;2023-02-12T09:41:13;100487.09;;;7.00;100.00
49843;BME280;55559;48.898;9.184;2023-02-12T09:43:50;100491.16;;;7.30;100.00
49843;BME280;55559;48.898;9.184;2023-02-12T09:46:24;100486.41;;;7.17;100.00
49843;BME280;55559;48.898;9.184;2023-02-12T09:49:07;100480.63;;;7.28;100.00
49843;BME280;55559;48.898;9.184;2023-02-12T09:51:37;100492.09;;;7.29;100.00
49843;BME280;55559;48.898;9.184;2023-02-12T09:54:09;100494.00;;;7.45;100.00
49843;BME280;55559;48.898;9.184;2023-02-12T09:56:40;100489.03;;;7.38;100.00
49843;BME280;55559;48.898;9.184;2023-02-12T09:59:15;100490.56;;;7.64;100.00
49843;BME280;55559;48.898;9.184;2023-02-12T10:01:46;100493.81;;;7.30;100.00
49843;BME280;55559;48.898;9.184;2023-02-12T10:04:13;100493.78;;;7.50;100.00
49843;BME280;55559;48.898;9.184;2023-02-12T10:06:46;100488.50;;;7.71;100.00
49843;BME280;55559;48.898;9.184;2023-02-12T10:09:33;100488.38;;;7.93;100.00
49843;BME280;55559;48.898;9.184;2023-02-12T10:12:12;100490.91;;;7.75;100.00
49843;BME280;55559;48.898;9.184;2023-02-12T10:14:55;100499.44;;;7.42;100.00
49843;BME280;55559;48.898;9.184;2023-02-12T10:17:35;100492.03;;;7.90;100.00
49843;BME280;55559;48.898;9.184;2023-02-12T10:23:20;100484.00;;;7.73;100.00
49843;BME280;55559;48.898;9.184;2023-02-12T10:25:52;100484.13;;;7.89;100.00
49843;BME280;55559;48.898;9.184;2023-02-12T10:28:25;100482.44;;;7.88;100.00
49843;BME280;55559;48.898;9.184;2023-02-12T10:30:56;100487.53;;;8.11;100.00
49843;BME280;55559;48.898;9.184;2023-02-12T10:33:26;100484.22;;;7.87;100.00
49843;BME280;55559;48.898;9.184;2023-02-12T10:35:58;100483.41;;;7.85;100.00
49843;BME280;55559;48.898;9.184;2023-02-12T10:38:31;100481.69;;;7.84;100.00
49843;BME280;55559;48.898;9.184;2023-02-12T10:41:01;100471.69;;;8.29;100.00
49843;BME280;55559;48.898;9.184;2023-02-12T10:43:30;100467.09;;;8.51;100.00
49843;BME280;55559;48.898;9.184;2023-02-12T10:45:58;100475.91;;;8.33;100.00
49843;BME280;55559;48.898;9.184;2023-02-12T10:48:30;100468.03;;;8.87;100.00
49843;BME280;55559;48.898;9.184;2023-02-12T10:51:19;100468.94;;;8.68;100.00
49843;BME280;55559;48.898;9.184;2023-02-12T10:53:51;100461.59;;;8.56;100.00
49843;BME280;55559;48.898;9.184;2023-02-12T10:56:20;100471.28;;;8.57;100.00
49843;BME280;55559;48.898;9.184;2023-02-12T10:58:55;100472.13;;;8.57;100.00
49843;BME280;55559;48.898;9.184;2023-02-12T11:01:26;100455.78;;;8.67;100.00
49843;BME280;55559;48.898;9.184;2023-02-12T11:03:55;100459.63;;;8.79;100.00
49843;BME280;55559;48.898;9.184;2023-02-12T11:06:24;100461.59;;;8.73;100.00
49843;BME280;55559;48.898;9.184;2023-02-12T11:08:53;100458.81;;;8.40;100.00
49843;BME280;55559;48.898;9.184;2023-02-12T11:11:23;100454.66;;;8.53;100.00
49843;BME280;55559;48.898;9.184;2023-02-12T11:13:59;100452.94;;;8.52;100.00
49843;BME280;55559;48.898;9.184;2023-02-12T11:16:29;100448.88;;;8.45;100.00
49843;BME280;55559;48.898;9.184;2023-02-12T11:19:01;100443.09;;;8.54;100.00
49843;BME280;55559;48.898;9.184;2023-02-12T11:21:30;100439.88;;;8.67;100.00
49843;BME280;55559;48.898;9.184;2023-02-12T11:24:25;100443.38;;;8.67;100.00
49843;BME280;55559;48.898;9.184;2023-02-12T11:27:19;100446.34;;;9.13;100.00
49843;BME280;55559;48.898;9.184;2023-02-12T11:30:10;100436.13;;;9.06;100.00
49843;BME280;55559;48.898;9.184;2023-02-12T11:32:38;100442.00;;;9.12;100.00
49843;BME280;55559;48.898;9.184;2023-02-12T11:35:12;100433.72;;;9.52;100.00
49843;BME280;55559;48.898;9.184;2023-02-12T11:37:41;100432.06;;;9.67;100.00
49843;BME280;55559;48.898;9.184;2023-02-12T11:40:16;100439.84;;;9.37;100.00
49843;BME280;55559;48.898;9.184;2023-02-12T11:42:48;100435.91;;;9.61;100.00
49843;BME280;55559;48.898;9.184;2023-02-12T11:45:21;100429.31;;;9.35;100.00
49843;BME280;55559;48.898;9.184;2023-02-12T11:47:53;100433.22;;;9.10;100.00
49843;BME280;55559;48.898;9.184;2023-02-12T11:50:24;100434.41;;;9.56;100.00
49843;BME280;55559;48.898;9.184;2023-02-12T11:52:56;100433.78;;;9.35;100.00
49843;BME280;55559;48.898;9.184;2023-02-12T11:55:26;100425.75;;;9.52;100.00
49843;BME280;55559;48.898;9.184;2023-02-12T11:58:02;100426.06;;;9.63;100.00
49843;BME280;55559;48.898;9.184;2023-02-12T12:00:35;100423.53;;;9.44;100.00
49843;BME280;55559;48.898;9.184;2023-02-12T12:03:10;100430.00;;;9.56;100.00
49843;BME280;55559;48.898;9.184;2023-02-12T12:05:44;100416.78;;;9.55;100.00
49843;BME280;55559;48.898;9.184;2023-02-12T12:08:18;100425.31;;;9.44;100.00
49843;BME280;55559;48.898;9.184;2023-02-12T12:10:52;100418.66;;;9.53;100.00
49843;BME280;55559;48.898;9.184;2023-02-12T12:13:22;100420.28;;;9.22;100.00
49843;BME280;55559;48.898;9.184;2023-02-12T12:15:58;100418.63;;;9.02;100.00
49843;BME280;55559;48.898;9.184;2023-02-12T12:18:47;100407.84;;;9.22;100.00
49843;BME280;55559;48.898;9.184;2023-02-12T12:21:39;100407.94;;;9.03;100.00
49843;BME280;55559;48.898;9.184;2023-02-12T12:24:13;100403.91;;;9.47;100.00
49843;BME280;55559;48.898;9.184;2023-02-12T12:26:46;100403.59;;;9.69;100.00
49843;BME280;55559;48.898;9.184;2023-02-12T12:29:28;100408.09;;;10.00;100.00
49843;BME280;55559;48.898;9.184;2023-02-12T12:32:02;100410.28;;;9.76;100.00
49843;BME280;55559;48.898;9.184;2023-02-12T12:34:32;100410.03;;;9.31;100.00
49843;BME280;55559;48.898;9.184;2023-02-12T12:37:13;100409.75;;;9.69;100.00
49843;BME280;55559;48.898;9.184;2023-02-12T12:39:54;100406.22;;;9.86;100.00
49843;BME280;55559;48.898;9.184;2023-02-12T12:42:41;100407.81;;;9.73;100.00
49843;BME280;55559;48.898;9.184;2023-02-12T12:45:24;100394.13;;;9.47;100.00
49843;BME280;55559;48.898;9.184;2023-02-12T12:48:07;100400.13;;;9.51;100.00
49843;BME280;55559;48.898;9.184;2023-02-12T12:50:54;100389.41;;;9.70;100.00
49843;BME280;55559;48.898;9.184;2023-02-12T12:53:36;100386.53;;;9.57;100.00
49843;BME280;55559;48.898;9.184;2023-02-12T12:56:18;100378.88;;;9.51;100.00
49843;BME280;55559;48.898;9.184;2023-02-12T12:59:13;100381.50;;;9.84;100.00
49843;BME280;55559;48.898;9.184;2023-02-12T13:02:04;100378.44;;;10.24;100.00
49843;BME280;55559;48.898;9.184;2023-02-12T13:05:03;100371.91;;;9.98;100.00
49843;BME280;55559;48.898;9.184;2023-02-12T13:07:42;100365.06;;;10.26;100.00
49843;BME280;55559;48.898;9.184;2023-02-12T13:10:30;100373.09;;;9.60;100.00
49843;BME280;55559;48.898;9.184;2023-02-12T13:13:12;100368.97;;;9.21;100.00
49843;BME280;55559;48.898;9.184;2023-02-12T13:15:50;100363.22;;;9.13;100.00
49843;BME280;55559;48.898;9.184;2023-02-12T13:18:32;100359.50;;;9.66;100.00
49843;BME280;55559;48.898;9.184;2023-02-12T13:21:09;100357.88;;;9.80;100.00